Time;durP1;ratioP1;P1;durP2;ratioP2;P2;SDS_P1;SDS_P2;PMS_P1;PMS_P2;Temp;Humidity;BMP_temperature;BMP_pressure;BME280_temperature;BME280_humidity;BME280_pressure;Samples;Min_cycle;Max_cycle;Signal;HPM_P1;HPM_P2
2023/12/09 00:00:38;;;;;;;0.00;0.00;;;24.70;41.70;;;;;;5051607;28;20199;-49
2023/12/09 00:03:10;;;;;;;0.00;0.00;;;24.70;41.50;;;;;;5051052;28;20730;-52
2023/12/09 00:05:41;;;;;;;0.00;0.00;;;24.80;41.60;;;;;;5051417;28;20195;-51
2023/12/09 00:08:13;;;;;;;0.00;0.00;;;24.80;41.70;;;;;;5051328;28;20523;-49
2023/12/09 00:10:44;;;;;;;0.00;0.00;;;24.90;41.80;;;;;;5050942;28;20235;-52
2023/12/09 00:13:15;;;;;;;0.00;0.00;;;24.90;41.80;;;;;;5050827;28;20203;-55
2023/12/09 00:15:46;;;;;;;0.00;0.00;;;24.90;41.70;;;;;;5050608;28;20698;-53
2023/12/09 00:18:17;;;;;;;0.00;0.00;;;24.90;41.70;;;;;;5050778;28;20286;-51
2023/12/09 00:20:47;;;;;;;0.10;0.10;;;24.90;42.30;;;;;;5051054;28;20219;-53
2023/12/09 00:23:20;;;;;;;0.00;0.00;;;24.90;41.70;;;;;;5051033;28;20206;-52
2023/12/09 00:25:51;;;;;;;0.00;0.00;;;24.90;41.70;;;;;;5050902;28;20265;-48
2023/12/09 00:28:22;;;;;;;0.00;0.00;;;24.90;41.70;;;;;;5050865;28;20192;-49
2023/12/09 00:30:53;;;;;;;0.00;0.00;;;25.00;41.70;;;;;;5051121;28;20583;-52
2023/12/09 00:33:23;;;;;;;0.00;0.00;;;25.00;41.70;;;;;;5050971;28;20207;-49
2023/12/09 00:35:54;;;;;;;0.00;0.00;;;25.00;41.70;;;;;;5051167;28;20230;-54
2023/12/09 00:38:27;;;;;;;0.00;0.00;;;25.10;41.50;;;;;;5051050;28;20539;-55
2023/12/09 00:40:57;;;;;;;0.00;0.00;;;25.10;41.50;;;;;;5050864;28;20718;-52
2023/12/09 00:43:28;;;;;;;0.00;0.00;;;25.10;41.40;;;;;;5051041;28;20192;-52
2023/12/09 00:45:59;;;;;;;0.00;0.00;;;25.10;41.40;;;;;;5051165;28;20282;-52
2023/12/09 00:48:29;;;;;;;0.00;0.00;;;25.20;41.30;;;;;;5050985;28;20663;-51
2023/12/09 00:51:00;;;;;;;0.00;0.00;;;25.30;41.30;;;;;;5050904;28;20223;-55
2023/12/09 00:53:33;;;;;;;0.00;0.00;;;25.30;41.30;;;;;;5051013;28;20191;-54
2023/12/09 00:56:03;;;;;;;0.00;0.00;;;25.30;41.40;;;;;;5051249;28;20234;-50
2023/12/09 00:58:34;;;;;;;0.00;0.00;;;25.30;41.40;;;;;;5051265;28;20559;-54
2023/12/09 01:01:05;;;;;;;0.00;0.00;;;25.30;41.40;;;;;;5050668;28;20212;-52
2023/12/09 01:03:36;;;;;;;0.00;0.00;;;25.40;41.50;;;;;;5050618;28;20218;-52
2023/12/09 01:06:07;;;;;;;0.00;0.00;;;25.40;41.50;;;;;;5051192;28;20214;-54
2023/12/09 01:08:40;;;;;;;0.00;0.00;;;25.40;41.50;;;;;;5052967;28;20195;-56
2023/12/09 01:11:10;;;;;;;0.00;0.00;;;25.40;41.50;;;;;;5054642;28;20219;-52
2023/12/09 01:13:41;;;;;;;0.00;0.00;;;25.50;41.50;;;;;;5054243;28;20683;-55
2023/12/09 01:16:12;;;;;;;0.00;0.00;;;25.50;41.50;;;;;;5054149;28;20233;-55
2023/12/09 01:18:43;;;;;;;0.00;0.00;;;25.50;41.50;;;;;;5054093;28;20195;-55
2023/12/09 01:21:14;;;;;;;0.00;0.00;;;25.60;41.40;;;;;;5043045;28;21324;-54
2023/12/09 01:23:46;;;;;;;0.00;0.00;;;25.50;41.40;;;;;;5048317;28;20191;-51
2023/12/09 01:26:17;;;;;;;0.00;0.00;;;25.60;41.50;;;;;;5053617;28;20184;-53
2023/12/09 01:28:48;;;;;;;0.00;0.00;;;25.60;41.40;;;;;;5039221;28;20207;-49
2023/12/09 01:31:18;;;;;;;0.00;0.00;;;25.60;41.20;;;;;;5047063;28;20223;-46
2023/12/09 01:33:49;;;;;;;0.00;0.00;;;25.60;41.10;;;;;;5053341;28;20647;-49
2023/12/09 01:36:20;;;;;;;0.00;0.00;;;25.70;41.10;;;;;;5053700;28;20218;-49
2023/12/09 01:38:52;;;;;;;0.00;0.00;;;25.70;40.90;;;;;;5052805;28;20545;-46
2023/12/09 01:41:23;;;;;;;0.00;0.00;;;25.70;40.80;;;;;;5052745;28;20551;-52
2023/12/09 01:43:54;;;;;;;0.00;0.00;;;25.80;40.80;;;;;;5051839;28;20198;-54
2023/12/09 01:46:25;;;;;;;0.00;0.00;;;25.80;40.80;;;;;;5051826;28;20191;-50
2023/12/09 01:48:56;;;;;;;0.00;0.00;;;25.90;40.90;;;;;;5052152;28;20191;-51
2023/12/09 01:51:28;;;;;;;0.00;0.00;;;25.90;40.90;;;;;;5053366;28;20353;-50
2023/12/09 01:54:01;;;;;;;0.00;0.00;;;25.90;41.00;;;;;;5052680;28;20200;-48
2023/12/09 01:56:32;;;;;;;0.00;0.00;;;25.90;41.00;;;;;;5052665;28;20215;-51
2023/12/09 01:59:03;;;;;;;0.00;0.00;;;25.90;41.00;;;;;;5052987;28;20779;-54
2023/12/09 02:01:36;;;;;;;0.00;0.00;;;25.90;41.00;;;;;;5052102;28;20223;-49
2023/12/09 02:04:07;;;;;;;0.00;0.00;;;25.90;41.00;;;;;;5053373;28;20656;-51
2023/12/09 02:06:38;;;;;;;0.00;0.00;;;25.90;41.10;;;;;;5051994;28;20203;-54
2023/12/09 02:09:11;;;;;;;0.00;0.00;;;25.90;41.10;;;;;;5052216;28;20683;-54
2023/12/09 02:11:51;;;;;;;0.00;0.00;;;25.90;41.10;;;;;;5052135;28;20200;-51
2023/12/09 02:14:29;;;;;;;0.00;0.00;;;25.90;40.90;;;;;;5052332;28;20485;-55
2023/12/09 02:17:10;;;;;;;0.00;0.00;;;25.90;41.00;;;;;;5052646;28;20199;-47
2023/12/09 02:19:42;;;;;;;0.00;0.00;;;25.90;40.90;;;;;;5052013;28;20200;-54
2023/12/09 02:22:13;;;;;;;0.00;0.00;;;25.90;40.60;;;;;;5052855;28;20211;-55
2023/12/09 02:24:45;;;;;;;0.00;0.00;;;25.90;40.40;;;;;;5036468;28;20212;-52
2023/12/09 02:27:17;;;;;;;0.00;0.00;;;25.90;40.40;;;;;;5032967;28;20196;-51
2023/12/09 02:29:57;;;;;;;0.00;0.00;;;25.90;40.20;;;;;;5032757;28;20619;-50
2023/12/09 02:32:32;;;;;;;0.00;0.00;;;25.90;40.00;;;;;;5044999;28;20314;-53
2023/12/09 02:35:04;;;;;;;0.00;0.00;;;25.90;39.80;;;;;;5052535;28;20219;-51
2023/12/09 02:37:36;;;;;;;0.00;0.00;;;25.90;40.10;;;;;;5052629;28;21226;-48
2023/12/09 02:40:10;;;;;;;0.00;0.00;;;25.90;40.10;;;;;;5052607;28;20196;-51
2023/12/09 02:42:42;;;;;;;0.00;0.00;;;26.00;40.30;;;;;;5052136;28;20215;-54
2023/12/09 02:45:13;;;;;;;0.00;0.00;;;26.00;40.20;;;;;;5052482;28;20203;-52
2023/12/09 02:47:44;;;;;;;0.00;0.00;;;26.00;40.10;;;;;;5052451;28;20280;-47
2023/12/09 02:50:15;;;;;;;0.00;0.00;;;26.00;40.20;;;;;;5052223;28;20191;-49
2023/12/09 02:52:46;;;;;;;0.00;0.00;;;25.90;40.10;;;;;;5052023;28;20227;-46
2023/12/09 02:55:18;;;;;;;0.00;0.00;;;25.90;40.10;;;;;;5052169;28;20219;-48
2023/12/09 02:57:49;;;;;;;0.00;0.00;;;26.00;40.20;;;;;;5052212;28;20191;-52
2023/12/09 03:00:20;;;;;;;0.00;0.00;;;26.00;40.30;;;;;;5052268;28;20199;-51
2023/12/09 03:02:50;;;;;;;0.00;0.00;;;25.90;40.10;;;;;;5052442;28;20195;-51
2023/12/09 03:05:21;;;;;;;0.00;0.00;;;25.90;40.10;;;;;;5052662;28;20199;-51
2023/12/09 03:07:52;;;;;;;0.00;0.00;;;25.90;40.20;;;;;;5052410;28;20196;-51
2023/12/09 03:10:24;;;;;;;0.00;0.00;;;25.90;40.10;;;;;;5052379;28;20195;-47
2023/12/09 03:12:55;;;;;;;0.00;0.00;;;25.90;40.10;;;;;;5052551;28;20196;-54
2023/12/09 03:15:26;;;;;;;0.00;0.00;;;25.90;39.80;;;;;;5052175;28;20223;-49
2023/12/09 03:17:56;;;;;;;0.00;0.00;;;25.90;39.80;;;;;;5052236;28;20203;-47
2023/12/09 03:20:27;;;;;;;0.00;0.00;;;25.90;39.70;;;;;;5052112;28;20205;-46
2023/12/09 03:22:58;;;;;;;0.00;0.00;;;25.90;39.70;;;;;;5051517;28;20202;-52
2023/12/09 03:25:32;;;;;;;0.00;0.00;;;25.90;39.60;;;;;;5042346;28;20211;-50
2023/12/09 03:28:02;;;;;;;0.00;0.00;;;25.90;39.60;;;;;;5031919;28;20200;-47
2023/12/09 03:30:33;;;;;;;0.00;0.00;;;25.90;39.70;;;;;;5031665;28;20207;-48
2023/12/09 03:33:04;;;;;;;0.00;0.00;;;25.90;39.70;;;;;;5041428;28;20200;-49
2023/12/09 03:35:35;;;;;;;0.00;0.00;;;25.90;39.70;;;;;;5032055;28;20261;-55
2023/12/09 03:38:06;;;;;;;0.00;0.00;;;25.90;39.60;;;;;;5031746;28;20206;-50
2023/12/09 03:40:37;;;;;;;0.00;0.00;;;25.90;39.50;;;;;;5031745;28;20200;-50
2023/12/09 03:43:08;;;;;;;0.00;0.00;;;25.90;39.30;;;;;;5037765;28;20198;-52
2023/12/09 03:45:38;;;;;;;0.00;0.00;;;25.90;39.20;;;;;;5051656;28;20199;-50
2023/12/09 03:48:09;;;;;;;0.00;0.00;;;25.90;39.00;;;;;;5051556;28;20670;-52
2023/12/09 03:50:40;;;;;;;0.00;0.00;;;25.90;38.90;;;;;;5051009;28;20188;-49
2023/12/09 03:53:11;;;;;;;0.00;0.00;;;25.90;38.80;;;;;;5051167;28;20199;-52
2023/12/09 03:55:43;;;;;;;0.00;0.00;;;25.80;39.00;;;;;;5051134;28;20219;-46
2023/12/09 03:58:14;;;;;;;0.00;0.00;;;25.80;39.20;;;;;;5050935;28;20195;-51
2023/12/09 04:00:45;;;;;;;0.00;0.00;;;25.80;39.30;;;;;;5050784;28;20199;-50
2023/12/09 04:03:15;;;;;;;0.00;0.00;;;25.80;39.30;;;;;;5051364;28;20195;-53
2023/12/09 04:05:46;;;;;;;0.00;0.00;;;25.80;39.40;;;;;;5051425;28;20196;-47
2023/12/09 04:08:17;;;;;;;0.00;0.00;;;25.80;39.30;;;;;;5051276;28;20199;-51
2023/12/09 04:10:50;;;;;;;0.00;0.00;;;25.80;39.30;;;;;;5051461;28;20225;-49
2023/12/09 04:13:20;;;;;;;0.00;0.00;;;25.80;39.30;;;;;;5051227;28;20195;-52
2023/12/09 04:15:51;;;;;;;0.00;0.00;;;25.80;39.30;;;;;;5051273;28;20223;-53
2023/12/09 04:18:22;;;;;;;0.00;0.00;;;25.80;39.30;;;;;;5051282;28;20195;-55
2023/12/09 04:20:52;;;;;;;0.00;0.00;;;25.80;39.30;;;;;;5051325;28;20215;-53
2023/12/09 04:23:23;;;;;;;0.05;0.05;;;25.80;39.30;;;;;;5051394;28;20191;-49
2023/12/09 04:25:56;;;;;;;0.00;0.00;;;25.80;39.80;;;;;;5051228;28;20226;-49
2023/12/09 04:28:26;;;;;;;0.00;0.00;;;25.80;39.00;;;;;;5050764;28;20219;-53
2023/12/09 04:30:57;;;;;;;0.00;0.00;;;25.70;38.70;;;;;;5051356;28;20223;-51
2023/12/09 04:33:29;;;;;;;0.00;0.00;;;25.70;38.50;;;;;;5051067;28;20203;-54
2023/12/09 04:36:00;;;;;;;0.00;0.00;;;25.70;38.50;;;;;;5050526;28;20215;-55
2023/12/09 04:38:31;;;;;;;0.00;0.00;;;25.70;38.40;;;;;;5050344;28;20560;-52
2023/12/09 04:41:04;;;;;;;0.00;0.00;;;25.70;38.30;;;;;;5050931;28;20234;-48
2023/12/09 04:43:34;;;;;;;0.00;0.00;;;25.70;38.20;;;;;;5054847;28;20238;-51
2023/12/09 04:46:05;;;;;;;0.00;0.00;;;25.60;38.20;;;;;;5054922;28;20195;-51
2023/12/09 04:48:36;;;;;;;0.00;0.00;;;25.60;38.20;;;;;;5054763;28;20291;-54
2023/12/09 04:51:07;;;;;;;0.00;0.00;;;25.60;38.30;;;;;;5054628;28;20215;-46
2023/12/09 04:53:38;;;;;;;0.00;0.00;;;25.60;38.40;;;;;;5054716;28;20565;-51
2023/12/09 04:56:12;;;;;;;0.00;0.00;;;25.60;38.40;;;;;;5054685;28;20225;-55
2023/12/09 04:58:43;;;;;;;0.00;0.00;;;25.60;38.40;;;;;;5054409;28;20195;-48
2023/12/09 05:01:13;;;;;;;0.00;0.00;;;25.60;38.30;;;;;;5054424;28;20219;-48
2023/12/09 05:03:44;;;;;;;0.00;0.00;;;25.60;38.30;;;;;;5054450;28;20196;-54
2023/12/09 05:06:15;;;;;;;0.00;0.00;;;25.50;38.20;;;;;;5054604;28;20279;-51
2023/12/09 05:08:45;;;;;;;0.00;0.00;;;25.60;38.80;;;;;;5054436;28;20563;-52
2023/12/09 05:11:18;;;;;;;0.00;0.00;;;25.50;37.90;;;;;;5054569;28;20226;-51
2023/12/09 05:13:49;;;;;;;0.00;0.00;;;25.50;37.70;;;;;;5055168;28;20256;-54
2023/12/09 05:16:20;;;;;;;0.00;0.00;;;25.50;37.60;;;;;;5052330;28;20238;-55
2023/12/09 05:18:51;;;;;;;0.00;0.00;;;25.40;37.40;;;;;;5034575;28;20225;-49
2023/12/09 05:21:21;;;;;;;0.00;0.00;;;25.40;37.20;;;;;;5034537;28;20303;-55
2023/12/09 05:23:52;;;;;;;0.00;0.00;;;25.40;37.20;;;;;;5034262;28;20671;-54
2023/12/09 05:26:30;;;;;;;0.00;0.00;;;25.30;37.00;;;;;;5034403;28;20211;-51
2023/12/09 05:29:01;;;;;;;0.00;0.00;;;25.30;36.80;;;;;;5034379;28;20192;-51
2023/12/09 05:31:32;;;;;;;0.00;0.00;;;25.30;36.90;;;;;;5038787;28;20231;-50
2023/12/09 05:34:03;;;;;;;0.00;0.00;;;25.30;36.80;;;;;;5044276;28;20195;-55
2023/12/09 05:36:34;;;;;;;0.00;0.00;;;25.30;36.80;;;;;;5033872;28;20695;-51
2023/12/09 05:39:05;;;;;;;0.00;0.00;;;25.20;36.70;;;;;;5034280;28;20196;-52
2023/12/09 05:41:37;;;;;;;0.00;0.00;;;25.20;36.80;;;;;;5037574;28;20231;-53
2023/12/09 05:44:08;;;;;;;0.00;0.00;;;25.20;36.70;;;;;;5040953;28;20188;-49
2023/12/09 05:46:40;;;;;;;0.00;0.00;;;25.20;36.70;;;;;;5053838;28;20280;-51
2023/12/09 05:49:10;;;;;;;0.00;0.00;;;25.20;36.70;;;;;;5053044;28;20246;-45
2023/12/09 05:51:43;;;;;;;0.00;0.00;;;25.20;36.70;;;;;;5053487;28;20580;-44
2023/12/09 05:54:13;;;;;;;0.00;0.00;;;25.20;36.60;;;;;;5052501;28;20569;-45
2023/12/09 05:56:50;;;;;;;0.00;0.00;;;25.10;36.50;;;;;;5053340;28;20231;-48
2023/12/09 05:59:21;;;;;;;0.00;0.00;;;25.10;36.50;;;;;;5053550;28;20252;-45
2023/12/09 06:01:52;;;;;;;0.00;0.00;;;25.10;36.50;;;;;;5053254;28;20579;-45
2023/12/09 06:04:22;;;;;;;0.00;0.00;;;25.10;36.40;;;;;;5053698;28;20196;-48
2023/12/09 06:06:53;;;;;;;0.00;0.00;;;25.10;36.40;;;;;;5053462;28;20652;-45
2023/12/09 06:09:24;;;;;;;0.00;0.00;;;25.10;36.30;;;;;;5053588;28;20199;-45
2023/12/09 06:11:56;;;;;;;0.00;0.00;;;25.00;36.20;;;;;;5053138;28;20215;-45
2023/12/09 06:14:27;;;;;;;0.00;0.00;;;25.00;36.10;;;;;;5053270;28;20203;-49
2023/12/09 06:16:58;;;;;;;0.00;0.00;;;25.00;36.10;;;;;;5053601;28;20587;-46
2023/12/09 06:19:28;;;;;;;0.00;0.00;;;25.00;36.10;;;;;;5052887;28;20198;-48
2023/12/09 06:21:59;;;;;;;0.00;0.00;;;24.90;36.80;;;;;;5053202;28;20212;-45
2023/12/09 06:24:30;;;;;;;0.00;0.00;;;25.00;36.10;;;;;;5053780;28;20199;-48
2023/12/09 06:27:03;;;;;;;0.00;0.00;;;24.90;36.10;;;;;;5052870;28;20192;-47
2023/12/09 06:29:35;;;;;;;0.00;0.00;;;24.90;36.20;;;;;;5052483;28;20196;-48
2023/12/09 06:32:06;;;;;;;0.00;0.00;;;24.90;36.30;;;;;;5052993;28;20235;-49
2023/12/09 06:34:36;;;;;;;0.00;0.00;;;24.90;36.40;;;;;;5052551;28;20203;-49
2023/12/09 06:37:07;;;;;;;0.00;0.00;;;24.90;36.40;;;;;;5052727;28;20714;-45
2023/12/09 06:39:38;;;;;;;0.00;0.00;;;24.90;36.50;;;;;;5052835;28;20203;-45
2023/12/09 06:42:11;;;;;;;0.08;0.08;;;24.90;36.50;;;;;;5052603;28;20211;-51
2023/12/09 06:44:41;;;;;;;0.00;0.00;;;24.90;37.10;;;;;;5052261;28;20198;-50
2023/12/09 06:47:13;;;;;;;0.00;0.00;;;24.90;36.60;;;;;;5052852;28;20191;-48
2023/12/09 06:49:44;;;;;;;0.00;0.00;;;24.90;36.40;;;;;;5052890;28;20644;-48
2023/12/09 06:52:15;;;;;;;0.00;0.00;;;24.90;36.30;;;;;;5052424;28;20212;-47
2023/12/09 06:54:45;;;;;;;0.00;0.00;;;24.90;36.20;;;;;;5052309;28;20201;-48
2023/12/09 06:57:18;;;;;;;0.00;0.00;;;24.90;36.10;;;;;;5052524;28;20233;-46
2023/12/09 06:59:49;;;;;;;0.00;0.00;;;24.90;36.10;;;;;;5052623;28;20191;-46
2023/12/09 07:02:19;;;;;;;0.00;0.00;;;24.90;36.00;;;;;;5052001;28;20223;-47
2023/12/09 07:04:50;;;;;;;0.00;0.00;;;24.90;36.10;;;;;;5051117;28;20203;-48
2023/12/09 07:07:21;;;;;;;0.00;0.00;;;24.80;36.00;;;;;;5052192;28;20199;-49
2023/12/09 07:09:51;;;;;;;0.00;0.00;;;24.80;36.00;;;;;;5052252;28;20195;-48
2023/12/09 07:12:24;;;;;;;0.00;0.00;;;24.80;35.90;;;;;;5052204;28;20219;-52
2023/12/09 07:14:56;;;;;;;0.00;0.00;;;24.80;35.90;;;;;;5052193;28;20196;-48
2023/12/09 07:17:26;;;;;;;0.00;0.00;;;24.80;36.00;;;;;;5051864;28;20262;-45
2023/12/09 07:19:59;;;;;;;0.00;0.00;;;24.80;36.00;;;;;;5052008;28;20195;-51
2023/12/09 07:22:30;;;;;;;0.00;0.00;;;24.80;36.10;;;;;;5052300;28;20306;-49
2023/12/09 07:25:00;;;;;;;0.00;0.00;;;24.70;36.10;;;;;;5034454;28;20195;-47
2023/12/09 07:27:33;;;;;;;0.00;0.00;;;24.70;36.10;;;;;;5032068;28;20428;-45
2023/12/09 07:30:04;;;;;;;0.00;0.00;;;24.70;36.10;;;;;;5032276;28;20695;-47
2023/12/09 07:32:36;;;;;;;0.00;0.00;;;24.70;36.00;;;;;;5045912;28;20223;-45
2023/12/09 07:35:07;;;;;;;0.03;0.03;;;24.70;36.00;;;;;;5047481;28;20218;-48
2023/12/09 07:37:37;;;;;;;0.00;0.00;;;24.70;36.00;;;;;;5031609;28;20306;-47
2023/12/09 07:40:11;;;;;;;0.10;0.10;;;24.70;35.90;;;;;;5031497;28;20196;-49
2023/12/09 07:42:44;;;;;;;0.00;0.00;;;24.70;35.90;;;;;;5031983;28;20216;-45
2023/12/09 07:45:14;;;;;;;0.00;0.00;;;24.70;35.90;;;;;;5031838;28;20196;-52
2023/12/09 07:47:45;;;;;;;0.00;0.00;;;24.70;36.00;;;;;;5036534;28;20192;-49
2023/12/09 07:50:17;;;;;;;0.00;0.00;;;24.70;35.90;;;;;;5051614;28;20203;-47
2023/12/09 07:52:47;;;;;;;0.00;0.00;;;24.70;35.90;;;;;;5051571;28;20246;-48
2023/12/09 07:55:18;;;;;;;0.00;0.00;;;24.60;35.90;;;;;;5051604;28;20202;-49
2023/12/09 07:57:51;;;;;;;0.00;0.00;;;24.60;35.80;;;;;;5051644;28;20223;-48
2023/12/09 08:00:22;;;;;;;0.00;0.00;;;24.60;35.80;;;;;;5051503;28;20195;-47
2023/12/09 08:02:52;;;;;;;0.00;0.00;;;24.60;35.90;;;;;;5051522;28;20223;-50
2023/12/09 08:05:23;;;;;;;0.00;0.00;;;24.60;36.00;;;;;;5051423;28;20200;-50
2023/12/09 08:07:54;;;;;;;0.00;0.00;;;24.50;36.10;;;;;;5051397;28;20203;-49
2023/12/09 08:10:25;;;;;;;0.00;0.00;;;24.50;36.10;;;;;;5051245;28;20195;-51
2023/12/09 08:12:58;;;;;;;0.00;0.00;;;24.50;36.20;;;;;;5051029;28;20237;-48
2023/12/09 08:15:28;;;;;;;0.00;0.00;;;24.50;36.30;;;;;;5051112;28;20606;-46
2023/12/09 08:17:59;;;;;;;0.00;0.00;;;24.50;36.30;;;;;;5054602;28;20231;-51
2023/12/09 08:20:30;;;;;;;0.00;0.00;;;24.50;37.00;;;;;;5055753;28;20191;-52
2023/12/09 08:23:00;;;;;;;0.00;0.00;;;24.50;36.30;;;;;;5054798;28;20219;-49
2023/12/09 08:25:31;;;;;;;0.00;0.00;;;24.50;36.30;;;;;;5055207;28;20245;-50
2023/12/09 08:28:05;;;;;;;0.00;0.00;;;24.50;36.20;;;;;;5055479;28;20241;-47
2023/12/09 08:30:46;;;;;;;0.00;0.00;;;24.50;36.90;;;;;;5055215;28;20207;-49
2023/12/09 08:33:17;;;;;;;0.00;0.00;;;24.50;36.30;;;;;;5054524;28;20565;-55
2023/12/09 08:35:48;;;;;;;0.00;0.00;;;24.50;36.30;;;;;;5054781;28;20199;-55
2023/12/09 08:38:19;;;;;;;0.00;0.00;;;24.40;36.20;;;;;;5055196;28;20684;-48
2023/12/09 08:40:49;;;;;;;0.00;0.00;;;24.40;36.20;;;;;;5055050;28;20203;-48
2023/12/09 08:43:22;;;;;;;0.00;0.00;;;24.40;36.20;;;;;;5054917;28;20562;-47
2023/12/09 08:45:53;;;;;;;0.05;0.05;;;24.40;36.20;;;;;;5054976;28;20648;-44
2023/12/09 08:48:23;;;;;;;0.00;0.00;;;24.40;36.20;;;;;;5054975;28;20198;-49
2023/12/09 08:50:54;;;;;;;0.00;0.00;;;24.40;36.20;;;;;;5054844;28;20206;-50
2023/12/09 08:53:25;;;;;;;0.00;0.00;;;24.30;36.20;;;;;;5045767;28;20196;-45
2023/12/09 08:55:55;;;;;;;0.00;0.00;;;24.40;36.40;;;;;;5034547;28;20203;-50
2023/12/09 08:58:28;;;;;;;0.00;0.00;;;24.40;36.40;;;;;;5034480;28;20254;-47
2023/12/09 09:00:59;;;;;;;0.00;0.00;;;24.30;36.50;;;;;;5034583;28;20193;-49
2023/12/09 09:03:30;;;;;;;0.00;0.00;;;24.30;36.60;;;;;;5034813;28;20254;-45
2023/12/09 09:06:02;;;;;;;0.00;0.00;;;24.30;36.60;;;;;;5035002;28;20200;-50
2023/12/09 09:08:32;;;;;;;0.00;0.00;;;24.30;36.60;;;;;;5038674;28;20656;-47
2023/12/09 09:11:03;;;;;;;0.00;0.00;;;24.30;36.60;;;;;;5046212;28;20196;-48
2023/12/09 09:13:36;;;;;;;0.00;0.00;;;24.30;36.60;;;;;;5053629;28;20203;-44
2023/12/09 09:16:07;;;;;;;0.00;0.00;;;24.30;36.60;;;;;;5053614;28;20191;-46
2023/12/09 09:18:38;;;;;;;0.00;0.00;;;24.30;36.60;;;;;;5054217;28;20246;-50
2023/12/09 09:21:09;;;;;;;0.00;0.00;;;24.30;36.60;;;;;;5050777;28;20220;-48
2023/12/09 09:23:40;;;;;;;0.00;0.00;;;24.30;36.60;;;;;;5053012;28;20231;-51
2023/12/09 09:26:11;;;;;;;0.00;0.00;;;24.30;36.60;;;;;;5053488;28;20187;-47
2023/12/09 09:28:43;;;;;;;0.00;0.00;;;24.30;36.60;;;;;;5053225;28;20199;-48
2023/12/09 09:31:15;;;;;;;0.00;0.00;;;24.30;36.70;;;;;;5053475;28;20215;-49
2023/12/09 09:33:46;;;;;;;0.00;0.00;;;24.20;36.70;;;;;;5053506;28;20564;-45
2023/12/09 09:36:16;;;;;;;0.00;0.00;;;24.20;36.70;;;;;;5049898;28;20199;-45
2023/12/09 09:38:47;;;;;;;0.00;0.00;;;24.20;36.70;;;;;;5051926;28;20316;-47
2023/12/09 09:41:24;;;;;;;0.00;0.00;;;24.20;36.90;;;;;;5052327;28;20439;-50
2023/12/09 09:44:06;;;;;;;0.00;0.00;;;24.20;36.90;;;;;;5053479;28;20196;-45
2023/12/09 09:46:39;;;;;;;0.00;0.00;;;24.20;37.00;;;;;;5053432;28;20191;-49
2023/12/09 09:49:14;;;;;;;0.00;0.00;;;24.20;37.00;;;;;;5052234;28;20199;-43
2023/12/09 09:51:48;;;;;;;0.00;0.00;;;24.20;37.10;;;;;;5053016;28;20223;-48
2023/12/09 09:54:23;;;;;;;0.00;0.00;;;24.20;37.10;;;;;;5036133;28;20204;-46
2023/12/09 09:56:57;;;;;;;0.00;0.00;;;24.20;37.20;;;;;;5041844;28;20202;-44
2023/12/09 09:59:30;;;;;;;0.00;0.00;;;24.20;37.20;;;;;;5052785;28;20199;-46
2023/12/09 10:02:02;;;;;;;0.00;0.00;;;24.20;37.20;;;;;;5052712;28;20715;-45
2023/12/09 10:04:32;;;;;;;0.00;0.00;;;24.10;37.80;;;;;;5052146;28;20559;-49
2023/12/09 10:07:04;;;;;;;0.00;0.00;;;24.20;37.30;;;;;;5052683;28;20195;-49
2023/12/09 10:09:35;;;;;;;0.05;0.05;;;24.10;37.90;;;;;;5051828;28;20695;-46
2023/12/09 10:12:06;;;;;;;0.00;0.00;;;24.10;37.20;;;;;;5051121;28;20631;-45
2023/12/09 10:14:39;;;;;;;0.00;0.00;;;24.10;37.30;;;;;;5052689;28;20196;-47
2023/12/09 10:17:10;;;;;;;0.00;0.00;;;24.10;37.30;;;;;;5052171;28;20207;-49
2023/12/09 10:19:43;;;;;;;0.00;0.00;;;24.10;37.30;;;;;;5052734;28;20651;-48
2023/12/09 10:22:15;;;;;;;0.00;0.00;;;24.10;37.40;;;;;;5053341;28;20222;-44
2023/12/09 10:24:51;;;;;;;0.00;0.00;;;24.10;37.40;;;;;;5063716;28;20198;-43
2023/12/09 10:27:23;;;;;;;0.00;0.00;;;24.10;38.10;;;;;;5063089;28;20195;-47
2023/12/09 10:29:57;;;;;;;0.00;0.00;;;24.00;37.50;;;;;;5060590;28;20210;-43
2023/12/09 10:32:29;;;;;;;0.05;0.05;;;24.00;37.60;;;;;;5061770;28;20223;-46
2023/12/09 10:35:00;;;;;;;0.00;0.00;;;24.00;37.60;;;;;;5062454;28;20191;-46
2023/12/09 10:37:31;;;;;;;0.00;0.00;;;24.00;37.60;;;;;;5032822;28;20188;-43
2023/12/09 10:40:06;;;;;;;0.00;0.00;;;24.00;37.70;;;;;;5061605;28;20191;-53
2023/12/09 10:42:39;;;;;;;0.00;0.00;;;24.00;37.80;;;;;;5060498;28;20234;-48
2023/12/09 10:45:12;;;;;;;0.00;0.00;;;24.00;37.80;;;;;;5061265;28;20620;-48
2023/12/09 10:47:43;;;;;;;0.00;0.00;;;24.00;37.80;;;;;;5061839;28;20290;-49
2023/12/09 10:50:15;;;;;;;0.05;0.05;;;24.00;37.80;;;;;;5059272;28;20635;-47
2023/12/09 10:52:46;;;;;;;0.00;0.00;;;24.00;37.80;;;;;;5061427;28;20680;-48
2023/12/09 10:55:17;;;;;;;0.10;0.10;;;24.00;37.80;;;;;;5059341;28;20188;-51
2023/12/09 10:57:49;;;;;;;0.00;0.00;;;24.00;37.90;;;;;;5060747;28;20219;-52
2023/12/09 11:00:24;;;;;;;0.00;0.00;;;24.00;37.90;;;;;;5072888;28;20205;-52
2023/12/09 11:02:56;;;;;;;0.00;0.00;;;24.00;37.90;;;;;;5072832;28;20222;-48
2023/12/09 11:05:27;;;;;;;0.00;0.00;;;23.90;37.90;;;;;;5072281;28;20217;-54
2023/12/09 11:08:00;;;;;;;0.00;0.00;;;24.00;37.90;;;;;;5071837;28;20206;-55
2023/12/09 11:10:30;;;;;;;0.00;0.00;;;24.00;37.90;;;;;;5071788;28;20199;-46
2023/12/09 11:13:03;;;;;;;0.00;0.00;;;23.90;37.90;;;;;;5071979;28;20215;-49
2023/12/09 11:15:36;;;;;;;0.00;0.00;;;23.90;37.90;;;;;;5072239;28;20673;-46
2023/12/09 11:18:10;;;;;;;0.00;0.00;;;23.90;37.90;;;;;;5071714;28;20222;-49
2023/12/09 11:20:42;;;;;;;0.00;0.00;;;23.90;38.00;;;;;;5071894;28;20198;-53
2023/12/09 11:23:13;;;;;;;0.00;0.00;;;23.90;38.00;;;;;;5056977;28;20220;-45
2023/12/09 11:25:43;;;;;;;0.00;0.00;;;23.90;38.10;;;;;;5032509;28;20196;-44
2023/12/09 11:28:14;;;;;;;0.00;0.00;;;23.80;38.10;;;;;;5031747;28;20238;-45
2023/12/09 11:30:56;;;;;;;0.00;0.00;;;23.90;38.10;;;;;;5031633;28;20214;-48
2023/12/09 11:33:28;;;;;;;0.10;0.10;;;23.80;38.10;;;;;;5032207;28;20203;-45
2023/12/09 11:36:00;;;;;;;0.00;0.00;;;23.80;38.10;;;;;;5031914;28;20204;-44
2023/12/09 11:38:31;;;;;;;0.00;0.00;;;23.80;38.10;;;;;;5031558;28;20226;-52
2023/12/09 11:41:02;;;;;;;0.00;0.00;;;23.80;38.10;;;;;;5045021;28;20559;-45
2023/12/09 11:43:32;;;;;;;0.00;0.00;;;23.80;38.20;;;;;;5052207;28;20195;-49
2023/12/09 11:46:05;;;;;;;0.00;0.00;;;23.80;38.20;;;;;;5051589;28;20191;-48
2023/12/09 11:48:36;;;;;;;0.03;0.03;;;23.80;38.20;;;;;;5051214;28;20206;-46
2023/12/09 11:51:07;;;;;;;0.00;0.00;;;23.80;38.20;;;;;;5050313;28;20527;-46
2023/12/09 11:53:38;;;;;;;0.00;0.00;;;23.80;38.20;;;;;;5051596;28;20660;-46
2023/12/09 11:56:10;;;;;;;0.00;0.00;;;23.80;38.20;;;;;;5051523;28;20196;-48
2023/12/09 11:58:41;;;;;;;0.00;0.00;;;23.80;38.20;;;;;;5050581;28;20223;-48
2023/12/09 12:01:13;;;;;;;0.00;0.00;;;23.80;38.30;;;;;;5051067;28;20211;-46
2023/12/09 12:03:44;;;;;;;0.00;0.00;;;23.80;38.30;;;;;;5051335;28;20203;-51
2023/12/09 12:06:15;;;;;;;0.00;0.00;;;23.80;38.30;;;;;;5051220;28;20562;-49
2023/12/09 12:08:46;;;;;;;0.00;0.00;;;23.80;38.40;;;;;;5051572;28;20218;-51
2023/12/09 12:11:18;;;;;;;0.00;0.00;;;23.80;38.40;;;;;;5051545;28;20563;-48
2023/12/09 12:13:49;;;;;;;0.00;0.00;;;23.70;38.40;;;;;;5051835;28;20199;-51
2023/12/09 12:16:22;;;;;;;0.00;0.00;;;23.70;38.40;;;;;;5051338;28;20199;-45
2023/12/09 12:18:56;;;;;;;0.10;0.10;;;23.70;38.50;;;;;;5051640;28;20584;-45
2023/12/09 12:21:27;;;;;;;0.00;0.00;;;23.70;38.50;;;;;;5051397;28;20222;-47
2023/12/09 12:23:58;;;;;;;0.00;0.00;;;23.70;38.50;;;;;;5051292;28;20222;-45
2023/12/09 12:26:29;;;;;;;0.00;0.00;;;23.70;38.60;;;;;;5051267;28;20218;-48
2023/12/09 12:29:00;;;;;;;0.05;0.05;;;23.70;38.60;;;;;;5051002;28;20226;-45
2023/12/09 12:31:33;;;;;;;0.00;0.00;;;23.70;38.70;;;;;;5060355;22;20518;-50
2023/12/09 12:34:17;;;;;;;0.00;0.00;;;23.70;38.70;;;;;;5031302;28;20532;-54
2023/12/09 12:36:49;;;;;;;0.00;0.00;;;23.70;38.70;;;;;;5031238;28;20219;-57
2023/12/09 12:39:20;;;;;;;0.00;0.00;;;23.70;38.60;;;;;;5030681;28;20220;-54
2023/12/09 12:41:51;;;;;;;0.00;0.00;;;23.70;38.60;;;;;;5031174;28;20215;-59
2023/12/09 12:44:24;;;;;;;0.00;0.00;;;23.70;38.70;;;;;;5031338;28;20198;-60
2023/12/09 12:46:56;;;;;;;0.00;0.00;;;23.70;38.70;;;;;;5031422;28;20204;-59
2023/12/09 12:49:29;;;;;;;0.00;0.00;;;23.70;38.70;;;;;;5031525;28;20574;-57
2023/12/09 12:52:02;;;;;;;0.00;0.00;;;23.60;38.70;;;;;;5031332;28;20252;-52
2023/12/09 12:54:33;;;;;;;0.00;0.00;;;23.70;38.80;;;;;;5031007;28;20204;-56
2023/12/09 12:57:04;;;;;;;0.00;0.00;;;23.70;38.90;;;;;;5031514;28;20200;-52
2023/12/09 12:59:35;;;;;;;0.00;0.00;;;23.70;38.90;;;;;;5031122;28;20692;-50
2023/12/09 13:02:08;;;;;;;0.00;0.00;;;23.60;38.90;;;;;;5031209;28;20216;-50
2023/12/09 13:04:38;;;;;;;0.00;0.00;;;23.60;38.90;;;;;;5034740;28;20200;-47
2023/12/09 13:07:09;;;;;;;0.00;0.00;;;23.60;39.60;;;;;;5034689;28;20200;-47
2023/12/09 13:09:40;;;;;;;0.00;0.00;;;23.60;39.00;;;;;;5034846;28;20202;-47